sensor_id;sensor_type;location;lat;lon;timestamp;pressure;altitude;pressure_sealevel;temperature;humidity
17764;BME280;22245;52.832;13.816;2022-11-20T00:00:43;100951.44;;;2.27;82.04
17764;BME280;22245;52.832;13.816;2022-11-20T00:04:04;100947.03;;;2.27;82.50
17764;BME280;22245;52.832;13.816;2022-11-20T00:07:26;100949.72;;;2.26;82.30
17764;BME280;22245;52.832;13.816;2022-11-20T00:10:49;100941.78;;;2.27;82.19
17764;BME280;22245;52.832;13.816;2022-11-20T00:14:12;100942.66;;;2.28;82.54
17764;BME280;22245;52.832;13.816;2022-11-20T00:17:33;100944.19;;;2.32;82.05
17764;BME280;22245;52.832;13.816;2022-11-20T00:21:00;100948.75;;;2.28;82.13
17764;BME280;22245;52.832;13.816;2022-11-20T00:24:22;100943.47;;;2.28;82.32
17764;BME280;22245;52.832;13.816;2022-11-20T00:27:45;100941.78;;;2.27;82.24
17764;BME280;22245;52.832;13.816;2022-11-20T00:31:08;100936.47;;;2.29;81.79
17764;BME280;22245;52.832;13.816;2022-11-20T00:34:30;100941.63;;;2.30;82.23
17764;BME280;22245;52.832;13.816;2022-11-20T00:37:52;100942.50;;;2.31;81.90
17764;BME280;22245;52.832;13.816;2022-11-20T00:41:15;100945.03;;;2.33;81.33
17764;BME280;22245;52.832;13.816;2022-11-20T00:44:38;100948.59;;;2.31;81.42
17764;BME280;22245;52.832;13.816;2022-11-20T00:47:59;100939.94;;;2.29;81.54
17764;BME280;22245;52.832;13.816;2022-11-20T00:51:24;100938.22;;;2.28;81.62
17764;BME280;22245;52.832;13.816;2022-11-20T00:54:46;100937.31;;;2.29;81.87
17764;BME280;22245;52.832;13.816;2022-11-20T00:58:08;100943.44;;;2.30;81.93
17764;BME280;22245;52.832;13.816;2022-11-20T01:01:35;100959.19;;;2.30;81.40
17764;BME280;22245;52.832;13.816;2022-11-20T01:04:57;100954.97;;;2.26;81.21
17764;BME280;22245;52.832;13.816;2022-11-20T01:08:19;100958.47;;;2.26;81.83
17764;BME280;22245;52.832;13.816;2022-11-20T01:11:42;100954.06;;;2.27;81.54
17764;BME280;22245;52.832;13.816;2022-11-20T01:15:05;100950.75;;;2.23;81.66
17764;BME280;22245;52.832;13.816;2022-11-20T01:18:28;100951.56;;;2.24;81.21
17764;BME280;22245;52.832;13.816;2022-11-20T01:21:52;100940.28;;;2.22;81.81
17764;BME280;22245;52.832;13.816;2022-11-20T01:25:14;100948.03;;;2.25;81.74
17764;BME280;22245;52.832;13.816;2022-11-20T01:28:36;100946.56;;;2.19;81.59
17764;BME280;22245;52.832;13.816;2022-11-20T01:31:58;100934.25;;;2.20;81.65
17764;BME280;22245;52.832;13.816;2022-11-20T01:35:21;100939.50;;;2.20;82.21
17764;BME280;22245;52.832;13.816;2022-11-20T01:38:43;100935.03;;;2.22;81.89
17764;BME280;22245;52.832;13.816;2022-11-20T01:42:05;100930.69;;;2.21;81.65
17764;BME280;22245;52.832;13.816;2022-11-20T01:46:03;100936.81;;;2.21;81.92
17764;BME280;22245;52.832;13.816;2022-11-20T01:49:30;100928.84;;;2.23;81.42
17764;BME280;22245;52.832;13.816;2022-11-20T01:52:59;100921.06;;;2.21;81.80
17764;BME280;22245;52.832;13.816;2022-11-20T01:56:23;100932.41;;;2.22;81.57
17764;BME280;22245;52.832;13.816;2022-11-20T01:59:51;100928.94;;;2.21;81.37
17764;BME280;22245;52.832;13.816;2022-11-20T02:03:16;100925.28;;;2.24;81.22
17764;BME280;22245;52.832;13.816;2022-11-20T02:06:42;100922.66;;;2.24;81.32
17764;BME280;22245;52.832;13.816;2022-11-20T02:10:06;100921.75;;;2.25;81.53
17764;BME280;22245;52.832;13.816;2022-11-20T02:13:28;100914.00;;;2.22;81.13
17764;BME280;22245;52.832;13.816;2022-11-20T02:17:05;100914.00;;;2.22;81.38
17764;BME280;22245;52.832;13.816;2022-11-20T02:20:27;100907.03;;;2.21;81.13
17764;BME280;22245;52.832;13.816;2022-11-20T02:24:09;100907.03;;;2.21;81.14
17764;BME280;22245;52.832;13.816;2022-11-20T02:27:31;100918.34;;;2.23;81.26
17764;BME280;22245;52.832;13.816;2022-11-20T02:30:53;100913.06;;;2.23;81.17
17764;BME280;22245;52.832;13.816;2022-11-20T02:34:15;100908.75;;;2.22;80.67
17764;BME280;22245;52.832;13.816;2022-11-20T02:37:38;100908.91;;;2.19;80.98
17764;BME280;22245;52.832;13.816;2022-11-20T02:41:02;100907.13;;;2.19;81.19
17764;BME280;22245;52.832;13.816;2022-11-20T02:44:24;100903.78;;;2.15;81.31
17764;BME280;22245;52.832;13.816;2022-11-20T02:47:46;100905.72;;;2.12;81.59
17764;BME280;22245;52.832;13.816;2022-11-20T02:51:08;100906.50;;;2.14;81.59
17764;BME280;22245;52.832;13.816;2022-11-20T02:54:30;100909.97;;;2.14;81.35
17764;BME280;22245;52.832;13.816;2022-11-20T02:57:53;100906.50;;;2.14;81.80
17764;BME280;22245;52.832;13.816;2022-11-20T03:01:15;100909.03;;;2.15;81.65
17764;BME280;22245;52.832;13.816;2022-11-20T03:04:37;100908.22;;;2.15;81.43
17764;BME280;22245;52.832;13.816;2022-11-20T03:07:59;100909.97;;;2.14;81.53
17764;BME280;22245;52.832;13.816;2022-11-20T03:11:21;100905.63;;;2.13;81.26
17764;BME280;22245;52.832;13.816;2022-11-20T03:14:44;100893.38;;;2.14;81.32
17764;BME280;22245;52.832;13.816;2022-11-20T03:18:11;100890.66;;;2.15;81.41
17764;BME280;22245;52.832;13.816;2022-11-20T03:21:34;100896.69;;;2.17;81.70
17764;BME280;22245;52.832;13.816;2022-11-20T03:24:56;100903.63;;;2.19;81.13
17764;BME280;22245;52.832;13.816;2022-11-20T03:28:17;100894.06;;;2.17;81.20
17764;BME280;22245;52.832;13.816;2022-11-20T03:31:41;100894.06;;;2.17;81.11
17764;BME280;22245;52.832;13.816;2022-11-20T03:35:03;100893.13;;;2.19;81.18
17764;BME280;22245;52.832;13.816;2022-11-20T03:38:25;100885.25;;;2.19;81.04
17764;BME280;22245;52.832;13.816;2022-11-20T03:41:47;100881.84;;;2.16;80.89
17764;BME280;22245;52.832;13.816;2022-11-20T03:45:09;100875.75;;;2.16;80.83
17764;BME280;22245;52.832;13.816;2022-11-20T03:48:33;100881.06;;;2.14;80.87
17764;BME280;22245;52.832;13.816;2022-11-20T03:51:54;100872.34;;;2.14;81.53
17764;BME280;22245;52.832;13.816;2022-11-20T03:55:16;100873.19;;;2.14;80.93
17764;BME280;22245;52.832;13.816;2022-11-20T03:58:39;100870.56;;;2.14;80.85
17764;BME280;22245;52.832;13.816;2022-11-20T04:02:01;100873.19;;;2.14;81.04
17764;BME280;22245;52.832;13.816;2022-11-20T04:05:24;100871.47;;;2.13;81.31
17764;BME280;22245;52.832;13.816;2022-11-20T04:08:46;100868.06;;;2.11;80.89
17764;BME280;22245;52.832;13.816;2022-11-20T04:12:13;100879.50;;;2.10;80.45
17764;BME280;22245;52.832;13.816;2022-11-20T04:15:35;100867.09;;;2.14;80.38
17764;BME280;22245;52.832;13.816;2022-11-20T04:19:03;100869.78;;;2.12;80.46
17764;BME280;22245;52.832;13.816;2022-11-20T04:22:26;100867.25;;;2.11;80.40
17764;BME280;22245;52.832;13.816;2022-11-20T04:25:48;100870.72;;;2.11;80.37
17764;BME280;22245;52.832;13.816;2022-11-20T04:29:11;100865.53;;;2.10;80.40
17764;BME280;22245;52.832;13.816;2022-11-20T04:32:32;100874.25;;;2.10;80.44
17764;BME280;22245;52.832;13.816;2022-11-20T04:35:54;100864.72;;;2.08;80.65
17764;BME280;22245;52.832;13.816;2022-11-20T04:39:17;100860.34;;;2.08;80.20
17764;BME280;22245;52.832;13.816;2022-11-20T04:42:39;100862.34;;;2.03;80.07
17764;BME280;22245;52.832;13.816;2022-11-20T04:46:01;100854.47;;;2.03;80.54
17764;BME280;22245;52.832;13.816;2022-11-20T04:49:23;100857.88;;;2.05;80.39
17764;BME280;22245;52.832;13.816;2022-11-20T04:52:45;100857.00;;;2.05;79.98
17764;BME280;22245;52.832;13.816;2022-11-20T04:56:10;100853.44;;;2.06;79.76
17764;BME280;22245;52.832;13.816;2022-11-20T04:59:32;100877.03;;;2.07;80.12
17764;BME280;22245;52.832;13.816;2022-11-20T05:02:54;100862.25;;;2.05;79.93
17764;BME280;22245;52.832;13.816;2022-11-20T05:06:18;100866.69;;;2.04;80.12
17764;BME280;22245;52.832;13.816;2022-11-20T05:09:40;100861.41;;;2.04;80.09
17764;BME280;22245;52.832;13.816;2022-11-20T05:13:03;100853.53;;;2.04;79.63
17764;BME280;22245;52.832;13.816;2022-11-20T05:16:24;100860.50;;;2.05;79.80
17764;BME280;22245;52.832;13.816;2022-11-20T05:19:46;100854.38;;;2.05;79.92
17764;BME280;22245;52.832;13.816;2022-11-20T05:23:12;100844.78;;;2.03;79.79
17764;BME280;22245;52.832;13.816;2022-11-20T05:26:34;100853.53;;;2.04;79.29
17764;BME280;22245;52.832;13.816;2022-11-20T05:29:57;100853.53;;;2.04;79.94
17764;BME280;22245;52.832;13.816;2022-11-20T05:33:19;100843.81;;;2.06;80.61
17764;BME280;22245;52.832;13.816;2022-11-20T05:36:40;100851.69;;;2.06;79.75
17764;BME280;22245;52.832;13.816;2022-11-20T05:40:04;100847.34;;;2.05;79.70
17764;BME280;22245;52.832;13.816;2022-11-20T05:43:26;100834.38;;;2.02;79.90
17764;BME280;22245;52.832;13.816;2022-11-20T05:46:49;100837.00;;;2.02;80.28
17764;BME280;22245;52.832;13.816;2022-11-20T05:50:12;100837.84;;;2.02;80.01
17764;BME280;22245;52.832;13.816;2022-11-20T05:53:34;100831.66;;;2.03;79.94
17764;BME280;22245;52.832;13.816;2022-11-20T05:56:56;100826.34;;;2.05;79.48
17764;BME280;22245;52.832;13.816;2022-11-20T06:00:18;100832.53;;;2.04;79.19
17764;BME280;22245;52.832;13.816;2022-11-20T06:03:42;100839.63;;;2.02;79.40
17764;BME280;22245;52.832;13.816;2022-11-20T06:07:06;100826.50;;;2.02;79.04
17764;BME280;22245;52.832;13.816;2022-11-20T06:10:28;100828.19;;;2.03;79.01
17764;BME280;22245;52.832;13.816;2022-11-20T06:13:50;100834.38;;;2.02;79.10
17764;BME280;22245;52.832;13.816;2022-11-20T06:17:12;100831.91;;;1.99;79.02
17764;BME280;22245;52.832;13.816;2022-11-20T06:20:35;100830.97;;;2.00;79.25
17764;BME280;22245;52.832;13.816;2022-11-20T06:24:01;100829.28;;;1.99;78.75
17764;BME280;22245;52.832;13.816;2022-11-20T06:27:23;100833.66;;;1.98;79.04
17764;BME280;22245;52.832;13.816;2022-11-20T06:30:46;100837.22;;;1.97;79.03
17764;BME280;22245;52.832;13.816;2022-11-20T06:34:08;100839.00;;;1.97;78.92
17764;BME280;22245;52.832;13.816;2022-11-20T06:37:31;100825.09;;;1.95;78.71
17764;BME280;22245;52.832;13.816;2022-11-20T06:40:52;100831.13;;;1.97;78.54
17764;BME280;22245;52.832;13.816;2022-11-20T06:44:15;100830.41;;;1.93;78.30
17764;BME280;22245;52.832;13.816;2022-11-20T06:47:37;100826.00;;;1.94;78.83
17764;BME280;22245;52.832;13.816;2022-11-20T06:50:59;100820.03;;;1.90;78.85
17764;BME280;22245;52.832;13.816;2022-11-20T06:54:22;100826.00;;;1.94;78.50
17764;BME280;22245;52.832;13.816;2022-11-20T06:57:44;100820.75;;;1.94;78.51
17764;BME280;22245;52.832;13.816;2022-11-20T07:01:11;100828.63;;;1.94;78.50
17764;BME280;22245;52.832;13.816;2022-11-20T07:04:33;100815.50;;;1.94;78.09
17764;BME280;22245;52.832;13.816;2022-11-20T07:07:55;100824.22;;;1.94;77.91
17764;BME280;22245;52.832;13.816;2022-11-20T07:11:19;100817.22;;;1.95;78.06
17764;BME280;22245;52.832;13.816;2022-11-20T07:14:41;100822.63;;;1.92;77.90
17764;BME280;22245;52.832;13.816;2022-11-20T07:18:03;100827.00;;;1.91;78.43
17764;BME280;22245;52.832;13.816;2022-11-20T07:21:25;100826.06;;;1.92;78.33
17764;BME280;22245;52.832;13.816;2022-11-20T07:24:47;100826.06;;;1.92;77.83
17764;BME280;22245;52.832;13.816;2022-11-20T07:28:10;100815.66;;;1.91;77.93
17764;BME280;22245;52.832;13.816;2022-11-20T07:31:32;100806.06;;;1.90;77.95
17764;BME280;22245;52.832;13.816;2022-11-20T07:34:54;100816.50;;;1.91;77.60
17764;BME280;22245;52.832;13.816;2022-11-20T07:38:16;100821.84;;;1.90;78.00
17764;BME280;22245;52.832;13.816;2022-11-20T07:41:37;100823.53;;;1.91;77.93
17764;BME280;22245;52.832;13.816;2022-11-20T07:45:01;100823.53;;;1.91;78.15
17764;BME280;22245;52.832;13.816;2022-11-20T07:48:23;100818.19;;;1.92;78.00
17764;BME280;22245;52.832;13.816;2022-11-20T07:51:44;100821.84;;;1.90;78.11
17764;BME280;22245;52.832;13.816;2022-11-20T07:55:11;100806.75;;;1.93;78.06
17764;BME280;22245;52.832;13.816;2022-11-20T07:58:33;100805.84;;;1.94;78.03
17764;BME280;22245;52.832;13.816;2022-11-20T08:01:56;100811.88;;;1.96;78.16
17764;BME280;22245;52.832;13.816;2022-11-20T08:05:19;100810.00;;;1.98;77.92
17764;BME280;22245;52.832;13.816;2022-11-20T08:08:40;100803.00;;;1.99;78.08
17764;BME280;22245;52.832;13.816;2022-11-20T08:12:02;100807.19;;;2.03;78.22
17764;BME280;22245;52.832;13.816;2022-11-20T08:15:46;100798.38;;;2.04;77.70
17764;BME280;22245;52.832;13.816;2022-11-20T08:19:10;100801.78;;;2.06;77.82
17764;BME280;22245;52.832;13.816;2022-11-20T08:22:32;100796.38;;;2.09;77.80
17764;BME280;22245;52.832;13.816;2022-11-20T08:25:54;100794.50;;;2.11;77.62
17764;BME280;22245;52.832;13.816;2022-11-20T08:29:16;100794.44;;;2.13;78.06
17764;BME280;22245;52.832;13.816;2022-11-20T08:32:37;100787.41;;;2.13;78.24
17764;BME280;22245;52.832;13.816;2022-11-20T08:36:02;100788.19;;;2.15;77.89
17764;BME280;22245;52.832;13.816;2022-11-20T08:39:24;100789.72;;;2.20;77.72
17764;BME280;22245;52.832;13.816;2022-11-20T08:42:47;100794.97;;;2.20;77.35
17764;BME280;22245;52.832;13.816;2022-11-20T08:46:09;100785.25;;;2.22;77.71
17764;BME280;22245;52.832;13.816;2022-11-20T08:49:30;100787.81;;;2.23;77.76
17764;BME280;22245;52.832;13.816;2022-11-20T08:52:53;100783.22;;;2.27;78.02
17764;BME280;22245;52.832;13.816;2022-11-20T08:56:16;100781.47;;;2.27;77.82
17764;BME280;22245;52.832;13.816;2022-11-20T08:59:38;100775.13;;;2.31;77.62
17764;BME280;22245;52.832;13.816;2022-11-20T09:03:19;100775.06;;;2.33;77.93
17764;BME280;22245;52.832;13.816;2022-11-20T09:06:42;100778.38;;;2.37;77.77
17764;BME280;22245;52.832;13.816;2022-11-20T09:10:06;100774.97;;;2.35;77.56
17764;BME280;22245;52.832;13.816;2022-11-20T09:13:43;100778.31;;;2.38;78.10
17764;BME280;22245;52.832;13.816;2022-11-20T09:17:05;100776.34;;;2.42;77.56
17764;BME280;22245;52.832;13.816;2022-11-20T09:20:29;100781.63;;;2.42;77.60
17764;BME280;22245;52.832;13.816;2022-11-20T09:23:51;100778.91;;;2.43;77.52
17764;BME280;22245;52.832;13.816;2022-11-20T09:27:14;100772.63;;;2.46;77.28
17764;BME280;22245;52.832;13.816;2022-11-20T09:30:40;100782.94;;;2.51;77.63
17764;BME280;22245;52.832;13.816;2022-11-20T09:34:02;100778.28;;;2.56;77.32
17764;BME280;22245;52.832;13.816;2022-11-20T09:37:24;100779.16;;;2.56;77.64
17764;BME280;22245;52.832;13.816;2022-11-20T09:40:51;100773.91;;;2.56;77.78
17764;BME280;22245;52.832;13.816;2022-11-20T09:44:30;100776.38;;;2.59;77.60
17764;BME280;22245;52.832;13.816;2022-11-20T09:51:56;100772.59;;;2.65;77.02
17764;BME280;22245;52.832;13.816;2022-11-20T09:55:19;100776.75;;;2.69;77.18
17764;BME280;22245;52.832;13.816;2022-11-20T09:58:44;100763.34;;;2.74;77.52
17764;BME280;22245;52.832;13.816;2022-11-20T10:02:16;100758.03;;;2.75;76.93
17764;BME280;22245;52.832;13.816;2022-11-20T10:05:43;100757.09;;;2.77;77.92
17764;BME280;22245;52.832;13.816;2022-11-20T10:09:18;100757.75;;;2.80;76.73
17764;BME280;22245;52.832;13.816;2022-11-20T10:12:55;100755.13;;;2.80;77.13
17764;BME280;22245;52.832;13.816;2022-11-20T10:16:28;100747.16;;;2.82;77.07
17764;BME280;22245;52.832;13.816;2022-11-20T10:20:16;100749.63;;;2.85;76.74
17764;BME280;22245;52.832;13.816;2022-11-20T10:23:53;100732.91;;;2.86;76.43
17764;BME280;22245;52.832;13.816;2022-11-20T10:27:44;100739.72;;;2.90;76.49
17764;BME280;22245;52.832;13.816;2022-11-20T10:31:14;100730.72;;;2.94;75.37
17764;BME280;22245;52.832;13.816;2022-11-20T10:34:46;100730.56;;;2.97;75.59
17764;BME280;22245;52.832;13.816;2022-11-20T10:38:15;100734.81;;;3.00;75.63
17764;BME280;22245;52.832;13.816;2022-11-20T10:41:41;100733.94;;;2.99;74.41
17764;BME280;22245;52.832;13.816;2022-11-20T10:45:15;100725.13;;;3.00;74.68
17764;BME280;22245;52.832;13.816;2022-11-20T10:48:41;100724.28;;;3.00;74.33
17764;BME280;22245;52.832;13.816;2022-11-20T10:52:10;100720.91;;;2.98;74.44
17764;BME280;22245;52.832;13.816;2022-11-20T10:55:40;100719.97;;;2.99;75.01
17764;BME280;22245;52.832;13.816;2022-11-20T10:59:32;100722.59;;;2.99;75.10
17764;BME280;22245;52.832;13.816;2022-11-20T11:02:56;100727.00;;;2.98;75.04
17764;BME280;22245;52.832;13.816;2022-11-20T11:06:29;100727.94;;;2.97;74.87
17764;BME280;22245;52.832;13.816;2022-11-20T11:09:55;100729.78;;;2.95;74.99
17764;BME280;22245;52.832;13.816;2022-11-20T11:13:24;100724.47;;;2.97;74.52
17764;BME280;22245;52.832;13.816;2022-11-20T11:16:50;100724.38;;;2.98;73.59
17764;BME280;22245;52.832;13.816;2022-11-20T11:20:17;100719.03;;;3.00;74.24
17764;BME280;22245;52.832;13.816;2022-11-20T11:23:40;100714.53;;;3.02;74.44
17764;BME280;22245;52.832;13.816;2022-11-20T11:27:04;100713.53;;;3.04;73.94
17764;BME280;22245;52.832;13.816;2022-11-20T11:30:44;100709.19;;;3.03;73.91
17764;BME280;22245;52.832;13.816;2022-11-20T11:34:06;100695.25;;;3.01;73.86
17764;BME280;22245;52.832;13.816;2022-11-20T11:37:33;100686.59;;;2.99;74.23
17764;BME280;22245;52.832;13.816;2022-11-20T11:40:57;100688.22;;;3.02;74.66
17764;BME280;22245;52.832;13.816;2022-11-20T11:44:21;100689.00;;;3.04;74.08
17764;BME280;22245;52.832;13.816;2022-11-20T11:48:07;100696.94;;;3.02;74.47
17764;BME280;22245;52.832;13.816;2022-11-20T11:51:34;100688.16;;;3.03;74.44
17764;BME280;22245;52.832;13.816;2022-11-20T11:55:02;100709.19;;;3.03;74.38
17764;BME280;22245;52.832;13.816;2022-11-20T11:58:40;100686.53;;;3.01;73.56
17764;BME280;22245;52.832;13.816;2022-11-20T12:02:13;100688.47;;;2.97;74.35
17764;BME280;22245;52.832;13.816;2022-11-20T12:05:40;100685.94;;;2.96;74.49
17764;BME280;22245;52.832;13.816;2022-11-20T12:09:05;100685.06;;;2.95;74.00
17764;BME280;22245;52.832;13.816;2022-11-20T12:12:32;100688.47;;;2.97;73.93
17764;BME280;22245;52.832;13.816;2022-11-20T12:15:56;100684.41;;;2.92;74.58
17764;BME280;22245;52.832;13.816;2022-11-20T12:19:18;100687.28;;;2.87;74.82
17764;BME280;22245;52.832;13.816;2022-11-20T12:22:48;100688.38;;;2.83;75.59
17764;BME280;22245;52.832;13.816;2022-11-20T12:26:24;100681.41;;;2.82;76.05
17764;BME280;22245;52.832;13.816;2022-11-20T12:29:56;100678.94;;;2.79;75.96
17764;BME280;22245;52.832;13.816;2022-11-20T12:33:51;100673.84;;;2.75;76.66
17764;BME280;22245;52.832;13.816;2022-11-20T12:37:25;100659.94;;;2.73;76.47
17764;BME280;22245;52.832;13.816;2022-11-20T12:40:56;100666.31;;;2.69;76.71
17764;BME280;22245;52.832;13.816;2022-11-20T12:44:36;100662.28;;;2.62;76.83
17764;BME280;22245;52.832;13.816;2022-11-20T12:48:41;100659.81;;;2.59;76.67
17764;BME280;22245;52.832;13.816;2022-11-20T12:52:19;100666.16;;;2.55;78.03
17764;BME280;22245;52.832;13.816;2022-11-20T12:55:49;100664.63;;;2.51;78.35
17764;BME280;22245;52.832;13.816;2022-11-20T12:59:27;100661.25;;;2.49;77.75
17764;BME280;22245;52.832;13.816;2022-11-20T13:03:29;100670.13;;;2.46;78.19
17764;BME280;22245;52.832;13.816;2022-11-20T13:06:55;100659.69;;;2.44;78.39
17764;BME280;22245;52.832;13.816;2022-11-20T13:10:22;100661.41;;;2.45;78.05
17764;BME280;22245;52.832;13.816;2022-11-20T13:14:07;100659.69;;;2.44;77.89
17764;BME280;22245;52.832;13.816;2022-11-20T13:17:40;100652.75;;;2.43;78.02
17764;BME280;22245;52.832;13.816;2022-11-20T13:21:13;100645.03;;;2.40;78.69
17764;BME280;22245;52.832;13.816;2022-11-20T13:24:35;100650.28;;;2.40;79.00
17764;BME280;22245;52.832;13.816;2022-11-20T13:28:00;100663.44;;;2.40;78.29
17764;BME280;22245;52.832;13.816;2022-11-20T13:31:32;100649.34;;;2.41;78.48
17764;BME280;22245;52.832;13.816;2022-11-20T13:34:58;100651.97;;;2.41;78.08
17764;BME280;22245;52.832;13.816;2022-11-20T13:38:20;100650.19;;;2.42;77.75
17764;BME280;22245;52.832;13.816;2022-11-20T13:41:42;100635.28;;;2.42;77.77
17764;BME280;22245;52.832;13.816;2022-11-20T13:45:10;100639.84;;;2.39;77.96
17764;BME280;22245;52.832;13.816;2022-11-20T13:48:34;100647.66;;;2.40;77.95
17764;BME280;22245;52.832;13.816;2022-11-20T13:52:20;100649.50;;;2.38;77.83
17764;BME280;22245;52.832;13.816;2022-11-20T13:55:54;100643.66;;;2.33;76.97
17764;BME280;22245;52.832;13.816;2022-11-20T13:59:29;100636.69;;;2.32;77.37
17764;BME280;22245;52.832;13.816;2022-11-20T14:03:17;100631.50;;;2.30;78.29
17764;BME280;22245;52.832;13.816;2022-11-20T14:06:59;100636.75;;;2.30;77.74
17764;BME280;22245;52.832;13.816;2022-11-20T14:10:24;100640.25;;;2.31;78.54
17764;BME280;22245;52.832;13.816;2022-11-20T14:13:54;100638.47;;;2.31;77.75
17764;BME280;22245;52.832;13.816;2022-11-20T14:17:23;100633.97;;;2.34;77.90
17764;BME280;22245;52.832;13.816;2022-11-20T14:20:46;100634.84;;;2.34;77.29
17764;BME280;22245;52.832;13.816;2022-11-20T14:24:11;100639.31;;;2.32;77.66
17764;BME280;22245;52.832;13.816;2022-11-20T14:27:36;100636.75;;;2.30;77.66
17764;BME280;22245;52.832;13.816;2022-11-20T14:30:59;100635.94;;;2.30;78.28
17764;BME280;22245;52.832;13.816;2022-11-20T14:34:23;100637.63;;;2.31;77.73
17764;BME280;22245;52.832;13.816;2022-11-20T14:37:48;100636.00;;;2.28;78.25
17764;BME280;22245;52.832;13.816;2022-11-20T14:41:17;100641.31;;;2.27;77.84
17764;BME280;22245;52.832;13.816;2022-11-20T14:44:41;100634.38;;;2.26;78.19
17764;BME280;22245;52.832;13.816;2022-11-20T14:48:04;100620.28;;;2.27;77.79
17764;BME280;22245;52.832;13.816;2022-11-20T14:51:29;100615.91;;;2.27;78.54
17764;BME280;22245;52.832;13.816;2022-11-20T14:54:54;100616.66;;;2.29;78.55
17764;BME280;22245;52.832;13.816;2022-11-20T14:58:21;100617.53;;;2.30;78.14
17764;BME280;22245;52.832;13.816;2022-11-20T15:01:54;100618.31;;;2.32;78.18
17764;BME280;22245;52.832;13.816;2022-11-20T15:05:18;100618.19;;;2.34;77.96
17764;BME280;22245;52.832;13.816;2022-11-20T15:08:50;100622.53;;;2.35;77.89
17764;BME280;22245;52.832;13.816;2022-11-20T15:12:17;100625.09;;;2.36;77.74
17764;BME280;22245;52.832;13.816;2022-11-20T15:15:44;100621.59;;;2.36;77.78
17764;BME280;22245;52.832;13.816;2022-11-20T15:19:19;100625.94;;;2.37;78.03
17764;BME280;22245;52.832;13.816;2022-11-20T15:22:41;100619.75;;;2.38;78.08
17764;BME280;22245;52.832;13.816;2022-11-20T15:26:04;100614.56;;;2.36;77.83
17764;BME280;22245;52.832;13.816;2022-11-20T15:29:26;100613.66;;;2.37;77.96
17764;BME280;22245;52.832;13.816;2022-11-20T15:32:48;100611.94;;;2.36;77.54
17764;BME280;22245;52.832;13.816;2022-11-20T15:36:11;100611.03;;;2.37;77.23
17764;BME280;22245;52.832;13.816;2022-11-20T15:39:34;100607.47;;;2.38;77.42
17764;BME280;22245;52.832;13.816;2022-11-20T15:42:56;100607.47;;;2.38;77.21
17764;BME280;22245;52.832;13.816;2022-11-20T15:46:37;100596.94;;;2.38;77.14
17764;BME280;22245;52.832;13.816;2022-11-20T15:50:00;100595.16;;;2.39;76.85
17764;BME280;22245;52.832;13.816;2022-11-20T15:53:23;100592.53;;;2.39;76.72
17764;BME280;22245;52.832;13.816;2022-11-20T15:56:45;100601.28;;;2.39;76.79
17764;BME280;22245;52.832;13.816;2022-11-20T16:00:09;100594.22;;;2.40;76.92
17764;BME280;22245;52.832;13.816;2022-11-20T16:03:31;100603.81;;;2.41;76.98
17764;BME280;22245;52.832;13.816;2022-11-20T16:06:53;100604.72;;;2.40;77.21
17764;BME280;22245;52.832;13.816;2022-11-20T16:10:17;100599.47;;;2.40;77.03
17764;BME280;22245;52.832;13.816;2022-11-20T16:13:39;100606.44;;;2.41;77.01
17764;BME280;22245;52.832;13.816;2022-11-20T16:17:18;100602.97;;;2.40;76.75
17764;BME280;22245;52.832;13.816;2022-11-20T16:21:01;100609.16;;;2.39;76.52
17764;BME280;22245;52.832;13.816;2022-11-20T16:24:23;100599.47;;;2.40;76.30
17764;BME280;22245;52.832;13.816;2022-11-20T16:27:46;100599.56;;;2.38;76.47
17764;BME280;22245;52.832;13.816;2022-11-20T16:31:10;100608.47;;;2.36;76.60
17764;BME280;22245;52.832;13.816;2022-11-20T16:34:31;100598.03;;;2.34;76.95
17764;BME280;22245;52.832;13.816;2022-11-20T16:37:54;100610.31;;;2.34;76.75
17764;BME280;22245;52.832;13.816;2022-11-20T16:41:16;100606.94;;;2.31;77.06
17764;BME280;22245;52.832;13.816;2022-11-20T16:44:39;100606.09;;;2.31;77.01
17764;BME280;22245;52.832;13.816;2022-11-20T16:48:01;100605.22;;;2.30;76.87
17764;BME280;22245;52.832;13.816;2022-11-20T16:51:23;100607.09;;;2.28;76.99
17764;BME280;22245;52.832;13.816;2022-11-20T16:54:46;100609.56;;;2.31;76.88
17764;BME280;22245;52.832;13.816;2022-11-20T16:58:08;100607.97;;;2.29;76.61
17764;BME280;22245;52.832;13.816;2022-11-20T17:01:31;100609.78;;;2.27;76.81
17764;BME280;22245;52.832;13.816;2022-11-20T17:04:55;100607.09;;;2.28;76.67
17764;BME280;22245;52.832;13.816;2022-11-20T17:08:17;100616.66;;;2.29;76.26
17764;BME280;22245;52.832;13.816;2022-11-20T17:11:40;100615.03;;;2.27;76.80
17764;BME280;22245;52.832;13.816;2022-11-20T17:15:01;100608.03;;;2.27;76.98
17764;BME280;22245;52.832;13.816;2022-11-20T17:18:26;100608.94;;;2.26;76.19
17764;BME280;22245;52.832;13.816;2022-11-20T17:21:48;100608.09;;;2.26;76.71
17764;BME280;22245;52.832;13.816;2022-11-20T17:25:10;100608.94;;;2.26;77.03
17764;BME280;22245;52.832;13.816;2022-11-20T17:28:33;100611.50;;;2.28;76.60
17764;BME280;22245;52.832;13.816;2022-11-20T17:31:55;100605.41;;;2.27;76.67
17764;BME280;22245;52.832;13.816;2022-11-20T17:35:18;100602.94;;;2.24;77.03
17764;BME280;22245;52.832;13.816;2022-11-20T17:38:40;100608.19;;;2.24;76.12
17764;BME280;22245;52.832;13.816;2022-11-20T17:42:03;100595.22;;;2.21;76.74
17764;BME280;22245;52.832;13.816;2022-11-20T17:45:42;100603.16;;;2.20;76.58
17764;BME280;22245;52.832;13.816;2022-11-20T17:49:04;100596.03;;;2.22;76.14
17764;BME280;22245;52.832;13.816;2022-11-20T17:52:28;100596.97;;;2.21;75.98
17764;BME280;22245;52.832;13.816;2022-11-20T17:55:54;100606.56;;;2.22;76.33
17764;BME280;22245;52.832;13.816;2022-11-20T17:59:34;100607.41;;;2.22;76.23